createdAt,value
2023-01-01T00:01:22.040Z,2.97
2023-01-01T00:03:27.368Z,3.92
2023-01-01T00:05:32.360Z,3.67
2023-01-01T00:10:48.426Z,3.63
2023-01-01T00:12:53.317Z,3.47
2023-01-01T00:14:58.395Z,3.58
2023-01-01T00:17:03.635Z,3.83
2023-01-01T00:19:08.732Z,3.78
2023-01-01T00:21:17.745Z,4.20
2023-01-01T00:23:22.846Z,4.43
2023-01-01T00:25:28.198Z,3.63
2023-01-01T00:27:35.724Z,3.72
2023-01-01T00:31:46.070Z,4.13
2023-01-01T00:33:55.493Z,4.32
2023-01-01T00:36:00.449Z,4.28
2023-01-01T00:38:05.744Z,5.00
2023-01-01T00:40:13.563Z,4.55
2023-01-01T00:42:18.508Z,4.50
2023-01-01T00:44:26.079Z,4.97
2023-01-01T00:46:30.959Z,5.00
2023-01-01T00:48:36.465Z,5.28
2023-01-01T00:50:41.462Z,5.57
2023-01-01T00:52:46.969Z,5.22
2023-01-01T00:54:52.442Z,5.85
2023-01-01T00:56:57.770Z,5.53
2023-01-01T00:59:02.674Z,5.75
2023-01-01T01:01:10.246Z,5.07
2023-01-01T01:03:28.311Z,6.15
2023-01-01T01:05:37.083Z,5.90
2023-01-01T01:07:42.827Z,5.78
2023-01-01T01:09:47.998Z,6.18
2023-01-01T01:12:17.924Z,5.65
2023-01-01T01:14:18.440Z,6.32
2023-01-01T01:16:29.333Z,6.43
2023-01-01T01:18:34.688Z,6.20
2023-01-01T01:20:39.996Z,6.13
2023-01-01T01:22:45.648Z,6.53
2023-01-01T01:24:50.517Z,6.47
2023-01-01T01:26:56.457Z,6.30
2023-01-01T01:29:01.854Z,6.70
2023-01-01T01:31:07.542Z,7.47
2023-01-01T01:33:15.232Z,6.88
2023-01-01T01:35:20.672Z,8.13
2023-01-01T01:37:25.572Z,8.75
2023-01-01T01:39:30.537Z,9.38
2023-01-01T01:41:35.542Z,9.13
2023-01-01T01:43:55.887Z,8.65
2023-01-01T01:46:05.016Z,8.55
2023-01-01T01:48:13.966Z,7.47
2023-01-01T01:50:26.171Z,7.68
2023-01-01T01:52:34.287Z,7.95
2023-01-01T01:54:39.500Z,6.75
2023-01-01T01:56:52.351Z,6.22
2023-01-01T01:58:57.444Z,5.88
2023-01-01T02:01:03.551Z,6.10
2023-01-01T02:03:11.560Z,5.65
2023-01-01T02:05:20.131Z,6.18
2023-01-01T02:07:27.046Z,6.47
2023-01-01T02:09:32.692Z,5.72
2023-01-01T02:11:38.107Z,4.95
2023-01-01T02:13:43.162Z,5.38
2023-01-01T02:15:55.415Z,6.53
2023-01-01T02:18:05.939Z,5.97
2023-01-01T02:20:43.446Z,5.57
2023-01-01T02:23:34.533Z,6.13
2023-01-01T02:25:56.983Z,6.03
2023-01-01T02:28:13.081Z,5.95
2023-01-01T02:30:22.058Z,5.97
2023-01-01T02:32:33.844Z,5.90
2023-01-01T02:34:43.253Z,6.20
2023-01-01T02:36:55.076Z,6.70
2023-01-01T02:39:03.737Z,5.55
2023-01-01T02:41:13.806Z,6.20
2023-01-01T02:43:24.565Z,6.13
2023-01-01T02:45:32.859Z,5.43
2023-01-01T02:47:37.991Z,5.30
2023-01-01T02:49:57.159Z,5.85
2023-01-01T02:52:09.348Z,6.03
2023-01-01T02:54:25.530Z,5.25
2023-01-01T02:56:43.122Z,5.65
2023-01-01T03:01:23.433Z,4.93
2023-01-01T03:03:35.325Z,5.07
2023-01-01T03:06:01.247Z,4.25
2023-01-01T03:08:12.069Z,5.05
2023-01-01T03:10:22.110Z,4.80
2023-01-01T03:12:43.740Z,5.57
2023-01-01T03:14:58.253Z,6.07
2023-01-01T03:17:13.503Z,5.57
2023-01-01T03:19:22.944Z,5.63
2023-01-01T03:21:28.331Z,5.43
2023-01-01T03:23:42.129Z,5.65
2023-01-01T03:28:06.126Z,5.05
2023-01-01T03:30:16.142Z,5.20
2023-01-01T03:32:52.447Z,4.65
2023-01-01T03:34:59.866Z,5.05
2023-01-01T03:37:10.311Z,4.97
2023-01-01T03:39:20.559Z,4.88
2023-01-01T03:41:32.160Z,5.43
2023-01-01T03:43:49.749Z,4.82
2023-01-01T03:50:12.778Z,4.90
2023-01-01T03:52:40.272Z,4.88
2023-01-01T03:54:58.669Z,4.68
2023-01-01T03:57:12.666Z,5.28
2023-01-01T03:59:24.136Z,4.25
2023-01-01T04:01:35.409Z,3.85
2023-01-01T04:03:44.660Z,4.00
2023-01-01T04:05:50.125Z,4.07
2023-01-01T04:07:56.824Z,3.03
2023-01-01T04:10:17.278Z,4.13
2023-01-01T04:12:23.300Z,3.72
2023-01-01T04:14:33.102Z,3.58
2023-01-01T04:16:38.070Z,3.60
2023-01-01T04:18:45.914Z,3.67
2023-01-01T04:20:51.357Z,3.55
2023-01-01T04:23:00.280Z,3.55
2023-01-01T04:25:06.765Z,3.47
2023-01-01T04:27:12.114Z,3.10
2023-01-01T04:29:17.257Z,3.58
2023-01-01T04:31:22.438Z,3.55
2023-01-01T04:33:27.416Z,3.47
2023-01-01T04:35:35.104Z,3.50
2023-01-01T04:39:45.702Z,3.50
2023-01-01T04:43:57.793Z,3.10
2023-01-01T04:46:05.362Z,3.40
2023-01-01T04:48:10.798Z,4.07
2023-01-01T04:50:16.427Z,3.40
2023-01-01T04:52:24.366Z,2.95
2023-01-01T04:54:29.976Z,2.90
2023-01-01T04:56:34.903Z,3.38
2023-01-01T04:58:42.677Z,2.55
2023-01-01T05:02:57.197Z,3.20
2023-01-01T05:05:02.212Z,2.85
2023-01-01T05:07:08.025Z,2.88
2023-01-01T05:09:15.995Z,3.03
2023-01-01T05:11:24.390Z,2.95
2023-01-01T05:13:29.323Z,3.08
2023-01-01T05:15:34.201Z,2.95
2023-01-01T05:17:39.596Z,3.15
2023-01-01T05:19:44.836Z,3.45
2023-01-01T05:21:50.063Z,3.20
2023-01-01T05:23:59.369Z,3.35
2023-01-01T05:26:12.798Z,4.13
2023-01-01T05:28:17.965Z,2.97
2023-01-01T05:30:23.007Z,3.45
2023-01-01T05:32:28.399Z,3.30
2023-01-01T05:36:41.616Z,2.72
2023-01-01T05:38:47.237Z,2.95
2023-01-01T05:40:52.357Z,3.13
2023-01-01T05:43:00.044Z,2.67
2023-01-01T05:47:10.150Z,3.92
2023-01-01T05:49:16.561Z,3.22
2023-01-01T05:51:24.072Z,3.60
2023-01-01T05:53:28.953Z,2.92
2023-01-01T05:55:33.947Z,3.15
2023-01-01T05:57:39.169Z,3.03
2023-01-01T05:59:47.484Z,3.55
2023-01-01T06:01:52.588Z,3.20
2023-01-01T06:03:59.604Z,3.05
2023-01-01T06:06:08.205Z,2.85
2023-01-01T06:08:13.578Z,2.90
2023-01-01T06:10:18.652Z,3.03
2023-01-01T06:12:27.865Z,3.08
2023-01-01T06:14:32.778Z,2.90
2023-01-01T06:16:41.014Z,3.05
2023-01-01T06:18:47.363Z,2.97
2023-01-01T06:20:52.751Z,3.15
2023-01-01T06:22:58.039Z,2.80
2023-01-01T06:25:03.246Z,2.13
2023-01-01T06:27:08.991Z,2.88
2023-01-01T06:29:13.856Z,2.60
2023-01-01T06:31:21.779Z,3.30
2023-01-01T06:33:29.283Z,3.22
2023-01-01T06:35:34.545Z,2.50
2023-01-01T06:37:40.276Z,2.80
2023-01-01T06:39:45.135Z,2.50
2023-01-01T06:41:50.439Z,2.30
2023-01-01T06:43:56.203Z,2.75
2023-01-01T06:46:06.046Z,2.33
2023-01-01T06:48:11.253Z,2.70
2023-01-01T06:50:19.543Z,3.05
2023-01-01T06:52:24.475Z,2.42
2023-01-01T06:54:30.128Z,2.60
2023-01-01T06:56:35.552Z,2.50
2023-01-01T06:58:42.067Z,2.50
2023-01-01T07:00:47.663Z,2.40
2023-01-01T07:02:52.721Z,2.75
2023-01-01T07:04:58.115Z,2.72
2023-01-01T07:07:05.705Z,2.65
2023-01-01T07:09:11.950Z,2.70
2023-01-01T07:11:16.841Z,2.33
2023-01-01T07:13:22.101Z,2.60
2023-01-01T07:15:27.295Z,2.42
2023-01-01T07:17:32.608Z,2.40
2023-01-01T07:19:38.016Z,2.58
2023-01-01T07:21:47.253Z,2.72
2023-01-01T07:23:56.330Z,2.50
2023-01-01T07:26:01.995Z,2.40
2023-01-01T07:28:07.222Z,2.22
2023-01-01T07:30:15.594Z,2.67
2023-01-01T07:32:21.617Z,2.45
2023-01-01T07:34:26.519Z,2.47
2023-01-01T07:36:31.477Z,2.78
2023-01-01T07:38:36.389Z,1.90
2023-01-01T07:40:44.981Z,2.33
2023-01-01T07:42:50.225Z,2.33
2023-01-01T07:47:06.607Z,2.78
2023-01-01T07:49:11.564Z,2.35
2023-01-01T07:51:16.906Z,2.33
2023-01-01T07:53:22.885Z,2.45
2023-01-01T07:55:27.885Z,2.72
2023-01-01T07:59:41.941Z,2.05
2023-01-01T08:01:47.329Z,2.28
2023-01-01T08:03:56.113Z,2.10
2023-01-01T08:06:00.997Z,2.38
2023-01-01T08:08:06.911Z,3.00
2023-01-01T08:10:13.694Z,2.38
2023-01-01T08:12:18.576Z,2.30
2023-01-01T08:14:26.172Z,2.35
2023-01-01T08:16:31.649Z,2.20
2023-01-01T08:18:36.967Z,2.38
2023-01-01T08:20:41.846Z,2.30
2023-01-01T08:22:47.017Z,2.03
2023-01-01T08:24:53.280Z,2.40
2023-01-01T08:26:58.240Z,2.17
2023-01-01T08:29:07.295Z,2.15
2023-01-01T08:31:15.316Z,2.30
2023-01-01T08:33:21.219Z,1.88
2023-01-01T08:35:27.370Z,1.90
2023-01-01T08:37:32.289Z,1.67
2023-01-01T08:39:37.548Z,2.40
2023-01-01T08:41:42.451Z,2.25
2023-01-01T08:43:47.866Z,2.03
2023-01-01T08:45:53.106Z,2.30
2023-01-01T08:48:01.048Z,1.88
2023-01-01T08:50:07.151Z,2.17
2023-01-01T08:52:12.401Z,2.25
2023-01-01T08:54:17.975Z,2.28
2023-01-01T08:56:23.086Z,2.13
2023-01-01T08:58:29.036Z,2.10
2023-01-01T09:00:34.863Z,2.35
2023-01-01T09:02:40.245Z,2.30
2023-01-01T09:04:47.855Z,2.15
2023-01-01T09:06:52.709Z,2.22
2023-01-01T09:08:58.099Z,2.35
2023-01-01T09:11:05.498Z,1.85
2023-01-01T09:13:10.540Z,2.10
2023-01-01T09:15:19.046Z,1.85
2023-01-01T09:17:23.984Z,2.15
2023-01-01T09:19:29.733Z,2.50
2023-01-01T09:21:37.207Z,2.20
2023-01-01T09:23:42.122Z,1.70
2023-01-01T09:25:47.172Z,2.03
2023-01-01T09:27:52.163Z,2.22
2023-01-01T09:29:57.619Z,2.05
2023-01-01T09:32:02.579Z,2.08
2023-01-01T09:34:07.501Z,2.60
2023-01-01T09:36:18.472Z,2.03
2023-01-01T09:38:25.931Z,2.35
2023-01-01T09:40:44.761Z,2.00
2023-01-01T09:42:55.505Z,1.70
2023-01-01T09:45:24.286Z,1.88
2023-01-01T09:47:35.545Z,1.73
2023-01-01T09:49:45.950Z,2.33
2023-01-01T09:52:01.212Z,2.30
2023-01-01T09:54:19.155Z,1.63
2023-01-01T09:56:29.207Z,2.90
2023-01-01T09:58:37.854Z,2.03
2023-01-01T10:00:47.263Z,1.98
2023-01-01T10:03:09.827Z,1.98
2023-01-01T10:05:31.678Z,2.33
2023-01-01T10:07:47.641Z,2.05
2023-01-01T10:10:05.946Z,2.00
2023-01-01T10:12:19.164Z,1.77
2023-01-01T10:14:33.422Z,2.20
2023-01-01T10:16:44.651Z,2.05
2023-01-01T10:18:54.476Z,1.58
2023-01-01T10:21:08.490Z,2.20
2023-01-01T10:23:21.565Z,1.75
2023-01-01T10:25:34.106Z,1.42
2023-01-01T10:27:44.072Z,1.30
2023-01-01T10:29:55.573Z,2.15
2023-01-01T10:32:20.312Z,2.38
2023-01-01T10:34:28.375Z,1.70
2023-01-01T10:36:33.294Z,2.25
2023-01-01T10:38:39.743Z,1.90
2023-01-01T10:40:47.263Z,1.90
2023-01-01T10:45:05.595Z,2.17
2023-01-01T10:47:29.140Z,2.25
2023-01-01T10:49:34.072Z,2.53
2023-01-01T10:51:41.354Z,2.17
2023-01-01T10:53:55.532Z,3.83
2023-01-01T10:56:13.519Z,1.55
2023-01-01T10:58:29.977Z,2.05
2023-01-01T11:00:36.643Z,2.10
2023-01-01T11:02:41.914Z,1.67
2023-01-01T11:04:47.696Z,2.22
2023-01-01T11:06:52.583Z,2.00
2023-01-01T11:09:00.105Z,1.98
2023-01-01T11:13:21.725Z,2.15
2023-01-01T11:15:39.404Z,1.80
2023-01-01T11:19:55.616Z,2.00
2023-01-01T11:22:05.363Z,2.28
2023-01-01T11:24:21.910Z,2.05
2023-01-01T11:26:31.345Z,2.00
2023-01-01T11:28:39.192Z,2.20
2023-01-01T11:30:44.802Z,2.00
2023-01-01T11:32:55.457Z,2.13
2023-01-01T11:35:06.293Z,2.95
2023-01-01T11:37:20.684Z,2.33
2023-01-01T11:39:29.407Z,2.00
2023-01-01T11:41:49.267Z,2.15
2023-01-01T11:43:57.334Z,2.05
2023-01-01T11:46:02.537Z,2.03
2023-01-01T11:48:17.008Z,2.28
2023-01-01T11:50:28.976Z,2.55
2023-01-01T11:52:41.538Z,2.35
2023-01-01T11:54:49.124Z,2.95
2023-01-01T11:56:59.497Z,1.95
2023-01-01T11:59:17.717Z,2.45
2023-01-01T12:01:29.723Z,2.10
2023-01-01T12:03:43.368Z,2.08
2023-01-01T12:05:53.977Z,2.47
2023-01-01T12:08:04.187Z,2.08
2023-01-01T12:10:19.180Z,1.92
2023-01-01T12:12:30.235Z,1.98
2023-01-01T12:14:45.434Z,2.17
2023-01-01T12:17:01.553Z,2.20
2023-01-01T12:19:16.060Z,1.40
2023-01-01T12:21:28.333Z,2.00
2023-01-01T12:23:34.914Z,1.92
2023-01-01T12:25:44.386Z,3.40
2023-01-01T12:28:06.140Z,2.10
2023-01-01T12:30:24.212Z,2.40
2023-01-01T12:32:44.405Z,2.00
2023-01-01T12:34:57.995Z,1.73
2023-01-01T12:37:14.043Z,1.60
2023-01-01T12:40:14.964Z,1.77
2023-01-01T12:42:31.351Z,2.20
2023-01-01T12:44:47.251Z,1.70
2023-01-01T12:47:06.363Z,1.85
2023-01-01T12:49:53.472Z,2.45
2023-01-01T12:54:57.335Z,2.28
2023-01-01T12:57:12.161Z,2.35
2023-01-01T12:59:23.190Z,1.80
2023-01-01T13:01:34.037Z,2.30
2023-01-01T13:03:52.840Z,2.38
2023-01-01T13:06:01.679Z,2.33
2023-01-01T13:08:09.224Z,1.95
2023-01-01T13:10:27.911Z,2.10
2023-01-01T13:12:33.557Z,2.67
2023-01-01T13:14:42.160Z,1.90
2023-01-01T13:16:52.986Z,2.83
2023-01-01T13:19:02.773Z,2.17
2023-01-01T13:21:25.787Z,2.33
2023-01-01T13:23:53.658Z,2.22
2023-01-01T13:26:37.541Z,2.20
2023-01-01T13:28:42.443Z,2.53
2023-01-01T13:30:54.791Z,2.30
2023-01-01T13:33:26.705Z,1.85
2023-01-01T13:35:34.435Z,2.05
2023-01-01T13:37:49.727Z,4.35
2023-01-01T13:39:56.608Z,2.60
2023-01-01T13:42:02.195Z,2.77
2023-01-01T13:44:25.328Z,2.33
2023-01-01T13:46:43.992Z,2.28
2023-01-01T13:49:24.597Z,2.67
2023-01-01T13:52:11.485Z,2.10
2023-01-01T13:54:50.699Z,2.30
2023-01-01T13:57:01.735Z,2.17
2023-01-01T13:59:52.542Z,2.13
2023-01-01T14:02:21.783Z,2.63
2023-01-01T14:04:44.864Z,2.42
2023-01-01T14:06:55.382Z,2.60
2023-01-01T14:09:08.353Z,2.00
2023-01-01T14:11:24.267Z,2.45
2023-01-01T14:13:32.926Z,2.13
2023-01-01T14:15:40.570Z,2.45
2023-01-01T14:19:51.544Z,1.90
2023-01-01T14:21:59.899Z,1.98
2023-01-01T14:24:08.825Z,2.50
2023-01-01T14:26:16.487Z,2.10
2023-01-01T14:28:27.486Z,2.30
2023-01-01T14:30:35.868Z,2.70
2023-01-01T14:32:41.202Z,2.40
2023-01-01T14:34:46.957Z,2.45
2023-01-01T14:36:56.700Z,2.25
2023-01-01T14:39:04.513Z,2.50
2023-01-01T14:41:16.894Z,2.88
2023-01-01T14:43:22.257Z,4.00
2023-01-01T14:45:28.382Z,2.58
2023-01-01T14:47:37.032Z,2.42
2023-01-01T14:49:42.173Z,2.78
2023-01-01T14:51:53.016Z,3.20
2023-01-01T14:54:05.877Z,2.80
2023-01-01T14:56:11.622Z,2.72
2023-01-01T14:58:25.134Z,2.47
2023-01-01T15:00:33.366Z,3.10
2023-01-01T15:02:41.688Z,2.72
2023-01-01T15:04:47.266Z,2.88
2023-01-01T15:06:57.397Z,3.53
2023-01-01T15:09:05.590Z,3.35
2023-01-01T15:11:11.260Z,3.15
2023-01-01T15:13:22.099Z,3.22
2023-01-01T15:15:43.362Z,3.13
2023-01-01T15:17:50.024Z,2.53
2023-01-01T15:20:07.291Z,4.13
2023-01-01T15:22:14.859Z,2.58
2023-01-01T15:24:27.364Z,2.80
2023-01-01T15:26:36.126Z,2.65
2023-01-01T15:28:46.094Z,2.40
2023-01-01T15:30:56.710Z,2.50
2023-01-01T15:33:10.525Z,2.75
2023-01-01T15:35:30.915Z,2.22
2023-01-01T15:37:40.651Z,3.28
2023-01-01T15:39:54.904Z,2.20
2023-01-01T15:42:00.058Z,2.80
2023-01-01T15:44:29.756Z,3.10
2023-01-01T15:46:35.144Z,2.65
2023-01-01T15:48:50.278Z,2.65
2023-01-01T15:51:08.805Z,2.88
2023-01-01T15:53:21.283Z,2.80
2023-01-01T15:55:31.851Z,3.65
2023-01-01T15:57:37.314Z,3.05
2023-01-01T15:59:47.790Z,3.30
2023-01-01T16:01:53.712Z,2.85
2023-01-01T16:04:10.027Z,2.85
2023-01-01T16:06:21.675Z,2.88
2023-01-01T16:08:27.510Z,2.97
2023-01-01T16:10:35.401Z,3.15
2023-01-01T16:12:40.394Z,2.28
2023-01-01T16:14:45.953Z,2.50
2023-01-01T16:16:57.676Z,2.75
2023-01-01T16:19:02.899Z,2.53
2023-01-01T16:21:09.158Z,2.85
2023-01-01T16:23:14.616Z,2.90
2023-01-01T16:25:22.531Z,3.03
2023-01-01T16:27:30.183Z,3.38
2023-01-01T16:29:35.387Z,3.78
2023-01-01T16:31:40.854Z,3.55
2023-01-01T16:33:47.153Z,4.30
2023-01-01T16:35:52.600Z,4.25
2023-01-01T16:37:57.544Z,4.15
2023-01-01T16:40:02.719Z,3.60
2023-01-01T16:42:09.022Z,4.30
2023-01-01T16:44:17.991Z,3.70
2023-01-01T16:46:23.671Z,4.03
2023-01-01T16:48:28.664Z,3.72
2023-01-01T16:50:33.613Z,4.13
2023-01-01T16:52:44.438Z,3.45
2023-01-01T16:54:50.033Z,3.85
2023-01-01T16:56:55.673Z,3.95
2023-01-01T16:59:03.458Z,3.58
2023-01-01T17:03:17.726Z,3.45
2023-01-01T17:05:22.777Z,3.60
2023-01-01T17:07:27.800Z,3.45
2023-01-01T17:09:32.796Z,3.92
2023-01-01T17:11:39.358Z,3.55
2023-01-01T17:13:44.787Z,3.78
2023-01-01T17:15:58.655Z,3.92
2023-01-01T17:18:07.904Z,3.08
2023-01-01T17:20:13.739Z,2.97
2023-01-01T17:22:19.304Z,3.08
2023-01-01T17:24:24.312Z,3.65
2023-01-01T17:26:29.635Z,3.13
2023-01-01T17:28:34.591Z,2.83
2023-01-01T17:30:39.626Z,3.38
2023-01-01T17:32:45.412Z,2.78
2023-01-01T17:34:53.027Z,3.50
2023-01-01T17:36:59.520Z,2.90
2023-01-01T17:39:05.095Z,3.40
2023-01-01T17:41:13.188Z,3.15
2023-01-01T17:43:18.111Z,3.55
2023-01-01T17:45:23.265Z,2.83
2023-01-01T17:47:32.646Z,2.97
2023-01-01T17:49:38.219Z,3.38
2023-01-01T17:51:45.817Z,3.10
2023-01-01T17:53:51.893Z,3.55
2023-01-01T17:55:57.264Z,3.63
2023-01-01T17:58:02.835Z,3.30
2023-01-01T18:00:10.630Z,3.80
2023-01-01T18:02:18.556Z,3.60
2023-01-01T18:04:23.883Z,3.70
2023-01-01T18:06:29.574Z,3.80
2023-01-01T18:08:37.298Z,4.07
2023-01-01T18:10:42.712Z,3.60
2023-01-01T18:12:47.696Z,3.70
2023-01-01T18:14:53.504Z,3.72
2023-01-01T18:16:58.459Z,4.18
2023-01-01T18:19:05.693Z,3.17
2023-01-01T18:21:14.487Z,3.25
2023-01-01T18:23:19.575Z,3.58
2023-01-01T18:25:27.552Z,3.85
2023-01-01T18:27:32.523Z,3.55
2023-01-01T18:29:37.874Z,3.30
2023-01-01T18:31:42.887Z,3.20
2023-01-01T18:33:48.067Z,3.10
2023-01-01T18:35:53.603Z,3.28
2023-01-01T18:37:58.545Z,3.13
2023-01-01T18:40:03.799Z,3.15
2023-01-01T18:42:35.282Z,3.38
2023-01-01T18:44:41.362Z,3.10
2023-01-01T18:46:47.227Z,3.67
2023-01-01T18:48:58.848Z,3.75
2023-01-01T18:51:04.325Z,3.92
2023-01-01T18:53:20.334Z,4.75
2023-01-01T18:55:28.068Z,5.00
2023-01-01T18:57:36.186Z,5.75
2023-01-01T18:59:41.156Z,4.82
2023-01-01T19:01:46.365Z,4.30
2023-01-01T19:03:54.664Z,3.50
2023-01-01T19:08:17.690Z,3.72
2023-01-01T19:10:23.643Z,4.10
2023-01-01T19:12:29.651Z,3.63
2023-01-01T19:14:37.215Z,3.55
2023-01-01T19:16:42.718Z,5.43
2023-01-01T19:18:49.027Z,4.03
2023-01-01T19:21:02.645Z,4.13
2023-01-01T19:23:20.210Z,4.90
2023-01-01T19:25:49.928Z,4.90
2023-01-01T19:27:54.920Z,5.20
2023-01-01T19:30:04.543Z,5.90
2023-01-01T19:32:09.556Z,4.13
2023-01-01T19:34:14.937Z,4.53
2023-01-01T19:36:19.990Z,4.75
2023-01-01T19:38:25.188Z,4.60
2023-01-01T19:40:30.158Z,3.90
2023-01-01T19:42:35.437Z,3.10
2023-01-01T19:44:40.417Z,3.45
2023-01-01T19:46:48.378Z,3.08
2023-01-01T19:48:55.310Z,3.00
2023-01-01T19:51:00.672Z,2.90
2023-01-01T19:53:06.768Z,3.67
2023-01-01T19:55:13.080Z,2.85
2023-01-01T19:57:18.852Z,3.15
2023-01-01T19:59:27.753Z,3.10
2023-01-01T20:01:38.295Z,3.67
2023-01-01T20:03:55.397Z,3.58
2023-01-01T20:06:01.808Z,3.28
2023-01-01T20:08:07.449Z,3.45
2023-01-01T20:10:13.121Z,4.22
2023-01-01T20:12:18.282Z,3.03
2023-01-01T20:14:23.220Z,3.25
2023-01-01T20:16:28.652Z,3.03
2023-01-01T20:18:33.668Z,3.67
2023-01-01T20:21:01.781Z,3.78
2023-01-01T20:23:06.807Z,3.30
2023-01-01T20:25:13.037Z,3.50
2023-01-01T20:27:24.686Z,3.65
2023-01-01T20:29:28.509Z,3.33
2023-01-01T20:31:33.543Z,3.70
2023-01-01T20:33:38.766Z,3.58
2023-01-01T20:35:58.845Z,4.05
2023-01-01T20:38:03.833Z,3.83
2023-01-01T20:40:11.711Z,4.10
2023-01-01T20:42:17.071Z,4.63
2023-01-01T20:44:23.770Z,4.05
2023-01-01T20:46:29.904Z,4.38
2023-01-01T20:48:34.939Z,4.03
2023-01-01T20:50:40.321Z,4.30
2023-01-01T20:52:47.863Z,5.03
2023-01-01T20:54:52.850Z,3.85
2023-01-01T20:56:58.331Z,4.13
2023-01-01T20:59:24.289Z,3.40
2023-01-01T21:01:29.504Z,4.85
2023-01-01T21:03:34.893Z,3.50
2023-01-01T21:05:40.231Z,3.90
2023-01-01T21:07:48.602Z,3.47
2023-01-01T21:09:53.707Z,3.22
2023-01-01T21:11:58.681Z,3.70
2023-01-01T21:14:04.520Z,3.50
2023-01-01T21:16:19.866Z,3.50
2023-01-01T21:18:25.382Z,3.05
2023-01-01T21:20:35.264Z,3.25
2023-01-01T21:22:41.904Z,3.63
2023-01-01T21:24:54.110Z,3.58
2023-01-01T21:27:13.870Z,3.42
2023-01-01T21:29:22.084Z,3.33
2023-01-01T21:31:27.816Z,2.90
2023-01-01T21:33:35.364Z,3.08
2023-01-01T21:35:41.483Z,3.22
2023-01-01T21:37:52.751Z,2.42
2023-01-01T21:40:00.346Z,2.92
2023-01-01T21:42:21.361Z,3.33
2023-01-01T21:44:26.311Z,3.65
2023-01-01T21:46:37.695Z,3.72
2023-01-01T21:48:45.189Z,3.25
2023-01-01T21:50:52.730Z,4.28
2023-01-01T21:53:02.919Z,3.10
2023-01-01T21:55:22.026Z,3.20
2023-01-01T21:57:28.457Z,2.95
2023-01-01T21:59:36.565Z,3.17
2023-01-01T22:01:44.790Z,2.97
2023-01-01T22:03:53.440Z,2.95
2023-01-01T22:05:59.574Z,3.33
2023-01-01T22:08:26.286Z,3.45
2023-01-01T22:10:39.359Z,4.13
2023-01-01T22:12:44.865Z,3.38
2023-01-01T22:14:53.256Z,3.95
2023-01-01T22:17:00.287Z,3.05
2023-01-01T22:19:13.059Z,3.20
2023-01-01T22:21:21.416Z,2.90
2023-01-01T22:23:48.886Z,3.00
2023-01-01T22:25:56.491Z,2.83
2023-01-01T22:28:08.148Z,2.92
2023-01-01T22:30:40.147Z,2.92
2023-01-01T22:32:46.831Z,3.38
2023-01-01T22:34:53.322Z,3.20
2023-01-01T22:36:58.563Z,2.55
2023-01-01T22:39:06.379Z,2.70
2023-01-01T22:41:16.268Z,2.60
2023-01-01T22:43:29.357Z,2.55
2023-01-01T22:45:35.561Z,2.78
2023-01-01T22:47:40.692Z,2.40
2023-01-01T22:49:51.380Z,2.72
2023-01-01T22:51:58.482Z,2.38
2023-01-01T22:54:03.872Z,2.67
2023-01-01T22:56:09.440Z,2.42
2023-01-01T22:58:17.212Z,2.67
2023-01-01T23:00:22.645Z,2.40
2023-01-01T23:02:27.691Z,2.53
2023-01-01T23:04:32.935Z,2.67
2023-01-01T23:06:38.024Z,2.83
2023-01-01T23:08:43.035Z,3.05
2023-01-01T23:10:48.163Z,2.50
2023-01-01T23:12:53.549Z,2.50
2023-01-01T23:15:13.709Z,2.88
2023-01-01T23:17:18.660Z,2.25
2023-01-01T23:19:24.170Z,3.22
2023-01-01T23:21:29.801Z,2.17
2023-01-01T23:23:35.867Z,2.50
2023-01-01T23:25:41.250Z,2.53
2023-01-01T23:27:46.840Z,3.10
2023-01-01T23:29:54.731Z,2.60
2023-01-01T23:32:03.297Z,2.78
2023-01-01T23:34:11.971Z,2.40
2023-01-01T23:36:17.017Z,2.80
2023-01-01T23:38:22.854Z,2.53
2023-01-01T23:40:28.608Z,2.47
2023-01-01T23:42:35.102Z,2.75
2023-01-01T23:44:41.940Z,2.47
2023-01-01T23:46:47.951Z,2.70
2023-01-01T23:48:57.289Z,2.13
2023-01-01T23:51:02.496Z,2.00
2023-01-01T23:53:07.768Z,2.63
2023-01-01T23:55:13.372Z,2.35
2023-01-01T23:57:18.380Z,2.88
2023-01-01T23:59:23.408Z,2.55
